createdAt,value
2023-02-14T00:03:49.556Z,44.15
2023-02-14T00:06:16.728Z,44.05
2023-02-14T00:08:47.107Z,42.30
2023-02-14T00:11:15.558Z,42.92
2023-02-14T00:14:05.275Z,42.65
2023-02-14T00:16:33.280Z,44.67
2023-02-14T00:19:05.832Z,41.88
2023-02-14T00:21:37.745Z,44.38
2023-02-14T00:24:07.347Z,42.08
2023-02-14T00:26:34.623Z,45.10
2023-02-14T00:29:01.831Z,40.08
2023-02-14T00:31:29.104Z,42.28
2023-02-14T00:33:56.299Z,44.55
2023-02-14T00:36:23.663Z,42.97
2023-02-14T00:38:50.979Z,40.20
2023-02-14T00:41:20.747Z,42.42
2023-02-14T00:43:52.564Z,37.80
2023-02-14T00:46:22.015Z,40.05
2023-02-14T00:48:49.296Z,41.78
2023-02-14T00:51:19.202Z,40.08
2023-02-14T00:53:48.160Z,39.67
2023-02-14T00:56:18.350Z,40.80
2023-02-14T00:58:48.684Z,42.95
2023-02-14T01:01:19.180Z,40.08
2023-02-14T01:03:47.079Z,39.75
2023-02-14T01:06:14.259Z,41.37
2023-02-14T01:08:41.536Z,41.80
2023-02-14T01:11:14.938Z,42.03
2023-02-14T01:13:43.472Z,40.97
2023-02-14T01:16:16.507Z,40.90
2023-02-14T01:18:44.248Z,41.03
2023-02-14T01:21:25.780Z,42.13
2023-02-14T01:23:54.805Z,41.28
2023-02-14T01:26:23.065Z,42.25
2023-02-14T01:28:50.568Z,43.58
2023-02-14T01:31:21.195Z,44.92
2023-02-14T01:33:49.747Z,45.00
2023-02-14T01:36:23.597Z,43.25
2023-02-14T01:38:56.897Z,46.75
2023-02-14T01:41:26.317Z,45.53
2023-02-14T01:44:05.249Z,44.40
2023-02-14T01:49:11.030Z,41.85
2023-02-14T01:51:46.450Z,52.17
2023-02-14T01:54:13.889Z,43.78
2023-02-14T01:56:53.155Z,47.08
2023-02-14T01:59:24.155Z,47.22
2023-02-14T02:01:53.562Z,44.53
2023-02-14T02:04:29.553Z,42.30
2023-02-14T02:07:04.068Z,43.83
2023-02-14T02:09:44.804Z,44.85
2023-02-14T02:12:12.676Z,39.60
2023-02-14T02:14:43.560Z,46.03
2023-02-14T02:17:14.891Z,44.90
2023-02-14T02:20:09.410Z,45.80
2023-02-14T02:23:14.658Z,48.58
2023-02-14T02:26:08.430Z,45.35
2023-02-14T02:29:00.441Z,46.90
2023-02-14T02:31:43.634Z,47.47
2023-02-14T02:34:35.750Z,47.30
2023-02-14T02:37:23.464Z,45.45
2023-02-14T02:40:10.494Z,45.00
2023-02-14T02:42:49.988Z,40.33
2023-02-14T02:46:00.569Z,45.92
2023-02-14T02:48:39.721Z,44.72
2023-02-14T02:51:29.728Z,42.15
2023-02-14T02:54:13.780Z,45.92
2023-02-14T02:56:56.135Z,47.63
2023-02-14T02:59:38.103Z,43.50
2023-02-14T03:02:15.093Z,41.90
2023-02-14T03:04:54.490Z,41.58
2023-02-14T03:07:40.506Z,44.75
2023-02-14T03:10:24.021Z,43.97
2023-02-14T03:13:10.325Z,41.72
2023-02-14T03:16:07.868Z,42.40
2023-02-14T03:19:29.341Z,41.17
2023-02-14T03:22:03.704Z,37.80
2023-02-14T03:25:09.216Z,40.85
2023-02-14T03:27:43.833Z,42.75
2023-02-14T03:30:33.684Z,45.35
2023-02-14T03:33:10.963Z,41.45
2023-02-14T03:36:02.292Z,42.28
2023-02-14T03:39:15.494Z,41.72
2023-02-14T03:41:50.950Z,43.40
2023-02-14T03:44:22.819Z,40.40
2023-02-14T03:46:54.565Z,37.70
2023-02-14T03:49:39.384Z,38.08
2023-02-14T03:52:09.870Z,40.42
2023-02-14T03:54:39.526Z,40.70
2023-02-14T03:57:38.644Z,45.35
2023-02-14T04:00:06.919Z,39.90
2023-02-14T04:02:46.737Z,52.03
2023-02-14T04:05:19.594Z,49.38
2023-02-14T04:07:50.311Z,49.22
2023-02-14T04:10:18.741Z,51.35
2023-02-14T04:12:46.003Z,52.78
2023-02-14T04:15:13.966Z,51.92
2023-02-14T04:18:07.670Z,50.50
2023-02-14T04:20:35.015Z,51.65
2023-02-14T04:23:03.540Z,55.70
2023-02-14T04:25:31.198Z,53.10
2023-02-14T04:27:58.409Z,50.08
2023-02-14T04:30:25.840Z,45.75
2023-02-14T04:32:52.998Z,48.85
2023-02-14T04:35:20.143Z,48.88
2023-02-14T04:37:47.437Z,49.40
2023-02-14T04:40:17.391Z,44.90
2023-02-14T04:42:45.833Z,52.25
2023-02-14T04:45:13.356Z,49.28
2023-02-14T04:47:40.718Z,51.70
2023-02-14T04:50:08.391Z,50.10
2023-02-14T04:52:35.549Z,49.80
2023-02-14T04:55:04.546Z,46.63
2023-02-14T04:57:31.952Z,47.00
2023-02-14T04:59:59.137Z,46.13
2023-02-14T05:02:26.685Z,42.40
2023-02-14T05:04:53.884Z,41.05
2023-02-14T05:07:21.098Z,38.17
2023-02-14T05:09:48.348Z,36.10
2023-02-14T05:12:17.012Z,36.53
2023-02-14T05:17:11.016Z,41.33
2023-02-14T05:19:38.090Z,37.60
2023-02-14T05:22:05.210Z,40.50
2023-02-14T05:24:33.504Z,37.95
2023-02-14T05:27:00.747Z,41.03
2023-02-14T05:29:28.036Z,42.60
2023-02-14T05:31:55.272Z,41.45
2023-02-14T05:34:22.443Z,41.85
2023-02-14T05:36:49.454Z,42.13
2023-02-14T05:39:16.488Z,43.53
2023-02-14T05:41:43.509Z,42.15
2023-02-14T05:44:10.691Z,42.92
2023-02-14T05:46:37.805Z,43.08
2023-02-14T05:49:04.860Z,40.28
2023-02-14T05:51:32.080Z,42.88
2023-02-14T05:54:01.230Z,47.13
2023-02-14T05:56:28.460Z,41.13
2023-02-14T05:58:55.672Z,41.70
2023-02-14T06:01:26.053Z,38.55
2023-02-14T06:03:53.321Z,39.95
2023-02-14T06:06:20.736Z,43.78
2023-02-14T06:08:47.826Z,39.85
2023-02-14T06:11:15.353Z,39.55
2023-02-14T06:13:42.450Z,35.25
2023-02-14T06:16:09.571Z,38.58
2023-02-14T06:18:37.634Z,41.10
2023-02-14T06:21:04.906Z,47.22
2023-02-14T06:23:32.103Z,38.83
2023-02-14T06:25:59.304Z,38.38
2023-02-14T06:28:26.646Z,40.05
2023-02-14T06:30:53.892Z,37.78
2023-02-14T06:33:21.085Z,40.00
2023-02-14T06:35:48.229Z,38.65
2023-02-14T06:38:15.387Z,40.72
2023-02-14T06:40:42.439Z,39.30
2023-02-14T06:43:09.576Z,41.40
2023-02-14T06:45:36.661Z,39.97
2023-02-14T06:48:04.299Z,34.67
2023-02-14T06:50:31.370Z,36.55
2023-02-14T06:52:58.520Z,37.35
2023-02-14T06:55:25.784Z,38.70
2023-02-14T06:57:52.920Z,37.83
2023-02-14T07:00:20.605Z,33.88
2023-02-14T07:02:47.947Z,33.88
2023-02-14T07:05:19.013Z,34.38
2023-02-14T07:07:46.672Z,33.05
2023-02-14T07:10:14.382Z,33.42
2023-02-14T07:12:41.696Z,33.87
2023-02-14T07:15:10.875Z,31.75
2023-02-14T07:17:38.508Z,35.40
2023-02-14T07:20:07.351Z,35.05
2023-02-14T07:22:34.836Z,33.88
2023-02-14T07:25:02.273Z,28.23
2023-02-14T07:27:29.271Z,30.75
2023-02-14T07:29:56.455Z,30.95
2023-02-14T07:32:23.664Z,34.38
2023-02-14T07:34:51.366Z,29.02
2023-02-14T07:37:19.194Z,28.95
2023-02-14T07:39:46.506Z,34.83
2023-02-14T07:42:13.646Z,36.35
2023-02-14T07:44:46.331Z,35.53
2023-02-14T07:47:13.475Z,34.88
2023-02-14T07:49:40.659Z,33.30
2023-02-14T07:52:07.665Z,37.83
2023-02-14T07:54:34.892Z,33.92
2023-02-14T07:57:01.997Z,34.85
2023-02-14T07:59:29.042Z,34.80
2023-02-14T08:01:56.414Z,34.45
2023-02-14T08:04:26.283Z,35.53
2023-02-14T08:06:57.179Z,35.92
2023-02-14T08:09:27.032Z,38.25
2023-02-14T08:12:14.653Z,38.70
2023-02-14T08:14:43.087Z,33.17
2023-02-14T08:17:13.414Z,41.30
2023-02-14T08:19:41.051Z,39.63
2023-02-14T08:22:08.376Z,36.88
2023-02-14T08:24:35.384Z,35.65
2023-02-14T08:27:02.511Z,35.90
2023-02-14T08:29:29.725Z,32.97
2023-02-14T08:32:00.327Z,34.10
2023-02-14T08:34:27.524Z,33.72
2023-02-14T08:36:55.544Z,36.15
2023-02-14T08:39:22.698Z,39.05
2023-02-14T08:41:49.740Z,38.58
2023-02-14T08:44:16.876Z,36.70
2023-02-14T08:46:43.945Z,39.95
2023-02-14T08:49:11.266Z,40.03
2023-02-14T08:51:38.341Z,41.28
2023-02-14T08:54:05.422Z,39.80
2023-02-14T08:56:33.316Z,38.95
2023-02-14T08:59:00.491Z,40.72
2023-02-14T09:01:29.219Z,36.95
2023-02-14T09:03:56.919Z,41.72
2023-02-14T09:06:24.616Z,39.30
2023-02-14T09:08:53.643Z,42.00
2023-02-14T09:11:23.101Z,46.13
2023-02-14T09:13:53.237Z,43.90
2023-02-14T09:16:22.777Z,44.20
2023-02-14T09:18:50.730Z,42.75
2023-02-14T09:21:21.204Z,44.33
2023-02-14T09:23:48.350Z,42.25
2023-02-14T09:26:16.716Z,38.35
2023-02-14T09:28:44.470Z,34.88
2023-02-14T09:31:20.156Z,35.93
2023-02-14T09:34:07.211Z,36.42
2023-02-14T09:36:34.356Z,34.50
2023-02-14T09:39:01.482Z,34.03
2023-02-14T09:41:31.483Z,35.80
2023-02-14T09:44:04.156Z,37.83
2023-02-14T09:46:40.451Z,35.08
2023-02-14T09:49:13.621Z,35.65
2023-02-14T09:51:46.081Z,39.47
2023-02-14T09:54:19.002Z,34.85
2023-02-14T09:56:55.918Z,46.15
2023-02-14T09:59:36.154Z,34.65
2023-02-14T10:02:27.218Z,29.92
2023-02-14T10:05:15.374Z,26.92
2023-02-14T10:08:08.389Z,29.05
2023-02-14T10:10:41.839Z,29.17
2023-02-14T10:13:20.940Z,29.52
2023-02-14T10:16:02.527Z,29.48
2023-02-14T10:18:48.962Z,26.15
2023-02-14T10:21:38.407Z,28.98
2023-02-14T10:24:23.193Z,26.88
2023-02-14T10:26:53.039Z,25.58
2023-02-14T10:29:21.071Z,25.48
2023-02-14T10:31:56.029Z,25.20
2023-02-14T10:34:45.868Z,28.08
2023-02-14T10:37:37.283Z,21.63
2023-02-14T10:40:17.499Z,21.35
2023-02-14T10:42:54.138Z,21.63
2023-02-14T10:45:51.908Z,20.50
2023-02-14T10:48:44.220Z,21.55
2023-02-14T10:51:23.421Z,23.17
2023-02-14T10:54:16.264Z,30.10
2023-02-14T10:57:03.451Z,26.65
2023-02-14T10:59:58.013Z,25.25
2023-02-14T11:02:31.790Z,25.55
2023-02-14T11:05:00.803Z,25.52
2023-02-14T11:07:28.068Z,21.92
2023-02-14T11:09:56.705Z,25.02
2023-02-14T11:15:14.920Z,29.73
2023-02-14T11:17:42.900Z,28.35
2023-02-14T11:20:24.559Z,31.52
2023-02-14T11:22:51.694Z,26.42
2023-02-14T11:25:21.816Z,25.10
2023-02-14T11:27:55.975Z,24.60
2023-02-14T11:30:33.772Z,23.85
2023-02-14T11:33:01.318Z,19.80
2023-02-14T11:35:37.182Z,19.75
2023-02-14T11:38:07.465Z,22.67
2023-02-14T11:40:37.927Z,21.20
2023-02-14T11:43:14.317Z,20.88
2023-02-14T11:45:47.419Z,18.10
2023-02-14T11:48:41.959Z,17.17
2023-02-14T11:51:15.145Z,16.35
2023-02-14T11:53:46.754Z,13.57
2023-02-14T11:56:15.653Z,16.95
2023-02-14T11:59:04.587Z,14.85
2023-02-14T12:01:36.949Z,17.10
2023-02-14T12:04:08.284Z,15.88
2023-02-14T12:06:36.879Z,12.85
2023-02-14T12:12:23.798Z,16.27
2023-02-14T12:14:50.968Z,17.08
2023-02-14T12:17:31.139Z,14.38
2023-02-14T12:20:10.202Z,14.45
2023-02-14T12:22:46.693Z,16.17
2023-02-14T12:25:22.898Z,18.85
2023-02-14T12:28:01.450Z,17.48
2023-02-14T12:30:33.757Z,16.02
2023-02-14T12:33:01.471Z,17.48
2023-02-14T12:35:43.976Z,16.55
2023-02-14T12:38:17.168Z,12.63
2023-02-14T12:41:05.316Z,11.25
2023-02-14T12:43:35.395Z,11.15
2023-02-14T12:46:37.538Z,7.13
2023-02-14T12:49:31.680Z,8.73
2023-02-14T12:52:13.734Z,7.80
2023-02-14T12:55:07.836Z,6.18
2023-02-14T12:57:37.983Z,5.95
2023-02-14T13:00:15.370Z,8.15
2023-02-14T13:03:15.655Z,9.35
2023-02-14T13:06:14.005Z,7.88
2023-02-14T13:08:54.212Z,9.48
2023-02-14T13:11:40.436Z,8.45
2023-02-14T13:14:16.459Z,10.15
2023-02-14T13:17:03.612Z,6.90
2023-02-14T13:19:45.619Z,5.63
2023-02-14T13:22:18.118Z,5.70
2023-02-14T13:24:57.852Z,6.78
2023-02-14T13:27:28.806Z,8.98
2023-02-14T13:30:04.890Z,8.48
2023-02-14T13:32:39.034Z,9.13
2023-02-14T13:35:07.823Z,9.77
2023-02-14T13:37:36.652Z,10.27
2023-02-14T13:40:16.064Z,7.85
2023-02-14T13:42:49.902Z,9.55
2023-02-14T13:45:32.207Z,13.02
2023-02-14T13:48:19.772Z,13.45
2023-02-14T13:50:51.850Z,13.73
2023-02-14T13:53:42.089Z,11.80
2023-02-14T13:56:12.053Z,16.02
2023-02-14T13:59:05.521Z,12.55
2023-02-14T14:01:48.127Z,15.32
2023-02-14T14:04:31.902Z,12.15
2023-02-14T14:07:30.882Z,11.15
2023-02-14T14:10:00.496Z,11.07
2023-02-14T14:12:27.547Z,12.73
2023-02-14T14:15:06.969Z,10.98
2023-02-14T14:18:06.893Z,10.70
2023-02-14T14:20:46.454Z,12.98
2023-02-14T14:23:32.422Z,11.73
2023-02-14T14:26:00.954Z,10.25
2023-02-14T14:28:32.056Z,11.00
2023-02-14T14:30:59.514Z,5.55
2023-02-14T14:33:33.524Z,11.70
2023-02-14T14:36:08.249Z,8.85
2023-02-14T14:38:47.447Z,8.68
2023-02-14T14:41:14.516Z,8.40
2023-02-14T14:43:42.180Z,6.95
2023-02-14T14:46:13.258Z,8.23
2023-02-14T14:48:51.566Z,8.55
2023-02-14T14:51:32.264Z,7.13
2023-02-14T14:54:03.450Z,6.90
2023-02-14T14:56:32.473Z,6.88
2023-02-14T14:59:18.140Z,6.32
2023-02-14T15:01:46.173Z,5.97
2023-02-14T15:04:19.620Z,6.82
2023-02-14T15:06:47.596Z,6.72
2023-02-14T15:09:23.017Z,10.80
2023-02-14T15:12:10.848Z,8.38
2023-02-14T15:14:42.890Z,6.88
2023-02-14T15:17:21.003Z,6.40
2023-02-14T15:19:51.673Z,12.88
2023-02-14T15:22:29.718Z,6.70
2023-02-14T15:24:58.676Z,6.50
2023-02-14T15:27:28.534Z,8.80
2023-02-14T15:30:01.347Z,9.20
2023-02-14T15:32:32.579Z,9.98
2023-02-14T15:35:03.716Z,9.48
2023-02-14T15:37:32.412Z,9.55
2023-02-14T15:39:59.987Z,11.10
2023-02-14T15:42:33.363Z,10.80
2023-02-14T15:45:26.125Z,10.68
2023-02-14T15:47:57.524Z,9.75
2023-02-14T15:50:27.965Z,12.52
2023-02-14T15:53:00.045Z,10.27
2023-02-14T15:55:27.875Z,7.82
2023-02-14T15:58:01.745Z,7.97
2023-02-14T16:00:29.222Z,11.07
2023-02-14T16:03:08.583Z,11.20
2023-02-14T16:05:35.550Z,14.68
2023-02-14T16:08:06.429Z,10.23
2023-02-14T16:10:34.486Z,12.13
2023-02-14T16:13:03.491Z,12.02
2023-02-14T16:15:33.569Z,12.02
2023-02-14T16:18:06.948Z,11.15
2023-02-14T16:20:43.345Z,10.88
2023-02-14T16:23:26.650Z,8.50
2023-02-14T16:25:57.278Z,11.35
2023-02-14T16:28:28.468Z,12.98
2023-02-14T16:30:57.753Z,8.77
2023-02-14T16:33:30.912Z,9.80
2023-02-14T16:36:22.882Z,10.88
2023-02-14T16:38:50.884Z,10.55
2023-02-14T16:41:23.174Z,9.13
2023-02-14T16:43:50.624Z,11.05
2023-02-14T16:46:37.409Z,13.00
2023-02-14T16:49:04.452Z,10.93
2023-02-14T16:51:34.255Z,14.15
2023-02-14T16:54:05.423Z,13.20
2023-02-14T16:56:48.678Z,12.23
2023-02-14T16:59:15.732Z,14.85
2023-02-14T17:01:42.959Z,12.70
2023-02-14T17:04:10.232Z,11.02
2023-02-14T17:06:39.888Z,12.70
2023-02-14T17:09:11.802Z,13.18
2023-02-14T17:11:43.471Z,12.00
2023-02-14T17:14:14.910Z,11.70
2023-02-14T17:16:42.620Z,12.40
2023-02-14T17:19:10.422Z,11.83
2023-02-14T17:21:38.312Z,11.15
2023-02-14T17:24:05.406Z,12.43
2023-02-14T17:26:33.905Z,11.75
2023-02-14T17:29:00.989Z,12.15
2023-02-14T17:31:29.089Z,16.02
2023-02-14T17:33:56.157Z,17.83
2023-02-14T17:36:24.217Z,13.40
2023-02-14T17:38:53.790Z,12.95
2023-02-14T17:41:23.334Z,12.27
2023-02-14T17:43:53.165Z,17.00
2023-02-14T17:46:22.320Z,13.57
2023-02-14T17:48:49.657Z,16.38
2023-02-14T17:51:18.150Z,17.90
2023-02-14T17:56:20.233Z,24.23
2023-02-14T17:58:48.944Z,20.50
2023-02-14T18:01:18.772Z,22.75
2023-02-14T18:03:45.865Z,27.92
2023-02-14T18:06:14.458Z,34.28
2023-02-14T18:08:46.270Z,37.55
2023-02-14T18:11:14.198Z,42.17
2023-02-14T18:13:41.638Z,51.97
2023-02-14T18:16:12.181Z,41.67
2023-02-14T18:18:39.872Z,36.78
2023-02-14T18:21:10.333Z,32.13
2023-02-14T18:23:38.165Z,29.77
2023-02-14T18:26:10.137Z,34.10
2023-02-14T18:28:37.203Z,48.08
2023-02-14T18:31:13.407Z,52.55
2023-02-14T18:33:40.718Z,58.80
2023-02-14T18:36:13.566Z,62.40
2023-02-14T18:38:42.070Z,59.08
2023-02-14T18:43:37.789Z,43.72
2023-02-14T18:46:06.949Z,35.92
2023-02-14T18:48:34.577Z,35.83
2023-02-14T18:51:13.223Z,39.90
2023-02-14T18:53:41.244Z,37.67
2023-02-14T18:56:14.088Z,45.50
2023-02-14T18:58:43.829Z,41.58
2023-02-14T19:01:23.514Z,46.28
2023-02-14T19:03:52.928Z,38.67
2023-02-14T19:06:20.869Z,34.95
2023-02-14T19:08:51.353Z,37.60
2023-02-14T19:11:24.301Z,37.72
2023-02-14T19:13:56.575Z,33.67
2023-02-14T19:16:26.390Z,36.95
2023-02-14T19:18:54.146Z,34.72
2023-02-14T19:21:27.421Z,33.03
2023-02-14T19:23:58.718Z,33.70
2023-02-14T19:26:37.238Z,33.20
2023-02-14T19:31:37.540Z,35.72
2023-02-14T19:34:06.602Z,33.20
2023-02-14T19:36:36.395Z,33.85
2023-02-14T19:39:04.036Z,29.90
2023-02-14T19:41:34.635Z,34.43
2023-02-14T19:44:04.919Z,31.58
2023-02-14T19:46:32.846Z,31.17
2023-02-14T19:49:00.831Z,33.10
2023-02-14T19:51:30.826Z,36.40
2023-02-14T19:53:59.575Z,40.35
2023-02-14T19:56:30.078Z,49.58
2023-02-14T19:58:57.632Z,55.92
2023-02-14T20:01:33.527Z,65.97
2023-02-14T20:04:01.211Z,57.15
2023-02-14T20:06:32.002Z,50.43
2023-02-14T20:08:59.107Z,42.75
2023-02-14T20:11:52.334Z,35.10
2023-02-14T20:14:36.037Z,33.90
2023-02-14T20:17:07.995Z,32.60
2023-02-14T20:19:37.078Z,27.15
2023-02-14T20:22:05.504Z,30.95
2023-02-14T20:24:32.783Z,28.13
2023-02-14T20:27:00.621Z,25.88
2023-02-14T20:29:27.901Z,23.97
2023-02-14T20:32:01.529Z,23.20
2023-02-14T20:34:28.847Z,26.17
2023-02-14T20:36:56.225Z,25.98
2023-02-14T20:39:29.119Z,28.70
2023-02-14T20:41:56.740Z,31.08
2023-02-14T20:44:24.103Z,27.92
2023-02-14T20:46:53.778Z,27.65
2023-02-14T20:49:22.518Z,26.20
2023-02-14T20:51:50.975Z,27.58
2023-02-14T20:54:19.901Z,27.52
2023-02-14T20:56:48.087Z,28.10
2023-02-14T20:59:15.308Z,28.33
2023-02-14T21:01:42.646Z,30.88
2023-02-14T21:04:10.072Z,29.80
2023-02-14T21:06:39.970Z,26.88
2023-02-14T21:09:07.448Z,27.85
2023-02-14T21:11:34.736Z,24.52
2023-02-14T21:14:02.271Z,30.65
2023-02-14T21:16:30.423Z,27.60
2023-02-14T21:18:59.514Z,27.40
2023-02-14T21:21:32.331Z,30.45
2023-02-14T21:24:01.490Z,30.98
2023-02-14T21:26:29.491Z,24.95
2023-02-14T21:28:56.770Z,27.30
2023-02-14T21:31:25.673Z,24.98
2023-02-14T21:33:58.001Z,25.90
2023-02-14T21:36:27.782Z,26.58
2023-02-14T21:38:58.302Z,26.60
2023-02-14T21:41:27.726Z,27.17
2023-02-14T21:43:56.525Z,25.75
2023-02-14T21:46:31.226Z,26.73
2023-02-14T21:49:19.271Z,26.98
2023-02-14T21:51:47.863Z,24.83
2023-02-14T21:56:43.212Z,29.33
2023-02-14T21:59:10.453Z,30.08
2023-02-14T22:01:40.242Z,27.80
2023-02-14T22:04:09.418Z,25.77
2023-02-14T22:06:38.644Z,26.85
2023-02-14T22:09:06.468Z,25.88
2023-02-14T22:11:34.068Z,25.83
2023-02-14T22:14:01.483Z,27.70
2023-02-14T22:16:28.890Z,24.95
2023-02-14T22:18:56.262Z,26.33
2023-02-14T22:21:25.598Z,30.58
2023-02-14T22:23:53.335Z,30.75
2023-02-14T22:26:26.724Z,29.02
2023-02-14T22:28:59.438Z,28.27
2023-02-14T22:31:29.220Z,31.05
2023-02-14T22:33:56.898Z,31.63
2023-02-14T22:36:24.347Z,26.38
2023-02-14T22:38:51.608Z,26.17
2023-02-14T22:41:21.638Z,29.23
2023-02-14T22:43:49.049Z,25.30
2023-02-14T22:46:17.769Z,28.90
2023-02-14T22:51:22.325Z,29.75
2023-02-14T22:53:51.023Z,25.83
2023-02-14T22:58:47.433Z,30.65
2023-02-14T23:01:20.086Z,29.67
2023-02-14T23:03:48.287Z,34.50
2023-02-14T23:06:16.168Z,34.92
2023-02-14T23:08:46.117Z,30.33
2023-02-14T23:11:34.621Z,32.08
2023-02-14T23:17:25.466Z,34.33
2023-02-14T23:20:11.245Z,35.75
2023-02-14T23:22:41.392Z,33.08
2023-02-14T23:25:11.245Z,34.40
2023-02-14T23:27:45.502Z,38.35
2023-02-14T23:30:16.839Z,36.05
2023-02-14T23:32:44.582Z,32.80
2023-02-14T23:35:11.771Z,40.70
2023-02-14T23:37:38.999Z,35.85
2023-02-14T23:40:07.389Z,39.65
2023-02-14T23:42:34.541Z,33.50
2023-02-14T23:45:21.924Z,37.50
2023-02-14T23:47:49.083Z,35.92
2023-02-14T23:50:16.308Z,39.15
2023-02-14T23:52:45.806Z,37.25
2023-02-14T23:55:13.338Z,37.47
2023-02-14T23:57:40.676Z,38.78
